createdAt,value
2018-02-13T00:01:08.775Z,67.80
2018-02-13T00:03:37.082Z,66.90
2018-02-13T00:06:04.590Z,66.90
2018-02-13T00:08:32.138Z,67.30
2018-02-13T00:10:59.657Z,67.20
2018-02-13T00:13:27.179Z,67.70
2018-02-13T00:15:54.703Z,67.80
2018-02-13T00:18:22.213Z,68.90
2018-02-13T00:20:50.479Z,68.80
2018-02-13T00:23:18.816Z,68.60
2018-02-13T00:25:46.340Z,68.60
2018-02-13T00:28:13.884Z,69.10
2018-02-13T00:30:42.193Z,68.80
2018-02-13T00:33:09.705Z,68.70
2018-02-13T00:35:38.009Z,68.70
2018-02-13T00:38:05.535Z,68.60
2018-02-13T00:40:33.060Z,68.70
2018-02-13T00:43:00.565Z,66.90
2018-02-13T00:45:28.856Z,68.10
2018-02-13T00:47:56.371Z,68.00
2018-02-13T00:50:23.895Z,68.60
2018-02-13T00:52:51.424Z,69.20
2018-02-13T00:55:19.725Z,69.50
2018-02-13T00:57:47.234Z,69.40
2018-02-13T01:00:14.773Z,68.60
2018-02-13T01:02:42.290Z,70.00
2018-02-13T01:05:09.804Z,69.20
2018-02-13T01:07:37.316Z,69.50
2018-02-13T01:10:04.838Z,69.60
2018-02-13T01:12:32.390Z,70.40
2018-02-13T01:15:00.008Z,70.70
2018-02-13T01:17:27.581Z,70.00
2018-02-13T01:19:55.158Z,69.50
2018-02-13T01:22:22.706Z,70.50
2018-02-13T01:24:50.270Z,70.80
2018-02-13T01:27:17.926Z,70.50
2018-02-13T01:29:45.534Z,70.40
2018-02-13T01:32:13.857Z,70.50
2018-02-13T01:34:41.442Z,70.50
2018-02-13T01:37:09.009Z,71.00
2018-02-13T01:39:36.570Z,70.40
2018-02-13T01:42:04.194Z,70.30
2018-02-13T01:44:31.760Z,71.30
2018-02-13T01:46:59.355Z,70.50
2018-02-13T01:49:26.940Z,70.90
2018-02-13T01:51:55.220Z,70.70
2018-02-13T01:54:23.529Z,70.60
2018-02-13T01:56:51.081Z,70.50
2018-02-13T01:59:18.580Z,70.70
2018-02-13T02:01:46.113Z,71.20
2018-02-13T02:04:13.644Z,71.00
2018-02-13T02:06:41.171Z,71.20
2018-02-13T02:09:08.692Z,71.20
2018-02-13T02:11:36.232Z,71.20
2018-02-13T02:16:37.797Z,71.70
2018-02-13T02:19:05.353Z,72.00
2018-02-13T02:21:32.860Z,71.40
2018-02-13T02:24:00.390Z,71.30
2018-02-13T02:26:27.905Z,71.20
2018-02-13T02:28:56.218Z,71.50
2018-02-13T02:31:23.739Z,71.30
2018-02-13T02:33:51.269Z,71.10
2018-02-13T02:36:18.806Z,71.00
2018-02-13T02:38:46.330Z,70.60
2018-02-13T02:41:14.603Z,70.40
2018-02-13T02:43:42.879Z,70.90
2018-02-13T02:46:11.148Z,70.50
2018-02-13T02:48:39.462Z,70.50
2018-02-13T02:51:06.972Z,70.50
2018-02-13T02:53:34.507Z,70.80
2018-02-13T02:56:02.065Z,70.70
2018-02-13T02:58:29.608Z,71.20
2018-02-13T03:00:57.129Z,70.20
2018-02-13T03:03:25.473Z,70.00
2018-02-13T03:05:52.982Z,70.00
2018-02-13T03:08:20.511Z,70.40
2018-02-13T03:10:48.041Z,70.60
2018-02-13T03:13:16.327Z,70.50
2018-02-13T03:15:43.845Z,70.40
2018-02-13T03:18:11.376Z,70.80
2018-02-13T03:20:38.899Z,70.20
2018-02-13T03:23:06.414Z,69.20
2018-02-13T03:25:33.983Z,69.90
2018-02-13T03:28:01.511Z,70.20
2018-02-13T03:30:29.848Z,71.40
2018-02-13T03:32:57.372Z,71.40
2018-02-13T03:35:24.912Z,71.60
2018-02-13T03:37:53.258Z,71.30
2018-02-13T03:40:20.781Z,71.30
2018-02-13T03:42:48.388Z,70.40
2018-02-13T03:45:15.906Z,70.20
2018-02-13T03:47:43.421Z,70.40
2018-02-13T03:50:11.712Z,70.90
2018-02-13T03:52:39.217Z,70.80
2018-02-13T03:55:06.769Z,71.20
2018-02-13T03:57:35.078Z,71.90
2018-02-13T04:00:02.654Z,71.80
2018-02-13T04:02:30.966Z,72.40
2018-02-13T04:04:58.516Z,72.40
2018-02-13T04:07:26.057Z,72.10
2018-02-13T04:09:53.608Z,71.20
2018-02-13T04:12:21.882Z,70.20
2018-02-13T04:14:50.172Z,70.50
2018-02-13T04:17:17.722Z,70.50
2018-02-13T04:19:46.024Z,70.30
2018-02-13T04:22:13.565Z,70.30
2018-02-13T04:24:44.421Z,69.60
2018-02-13T04:27:11.937Z,69.60
2018-02-13T04:29:39.465Z,67.80
2018-02-13T04:32:06.982Z,68.60
2018-02-13T04:34:35.261Z,70.30
2018-02-13T04:37:02.815Z,70.20
2018-02-13T04:39:31.084Z,70.20
2018-02-13T04:41:59.375Z,70.60
2018-02-13T04:44:26.941Z,70.60
2018-02-13T04:46:54.453Z,70.70
2018-02-13T04:49:21.973Z,70.80
2018-02-13T04:51:49.497Z,70.40
2018-02-13T04:54:17.788Z,71.00
2018-02-13T04:56:45.341Z,70.90
2018-02-13T04:59:12.882Z,70.80
2018-02-13T05:01:41.170Z,70.40
2018-02-13T05:04:08.722Z,70.40
2018-02-13T05:06:37.013Z,70.50
2018-02-13T05:09:04.536Z,70.40
2018-02-13T05:11:32.123Z,70.50
2018-02-13T05:13:59.662Z,70.80
2018-02-13T05:16:27.190Z,71.20
2018-02-13T05:18:54.760Z,69.90
2018-02-13T05:21:22.305Z,70.00
2018-02-13T05:23:49.803Z,69.80
2018-02-13T05:26:17.320Z,70.40
2018-02-13T05:28:44.837Z,69.60
2018-02-13T05:31:13.143Z,69.90
2018-02-13T05:33:40.678Z,69.90
2018-02-13T05:36:08.990Z,69.50
2018-02-13T05:38:36.513Z,69.40
2018-02-13T05:41:04.793Z,70.20
2018-02-13T05:43:32.320Z,70.10
2018-02-13T05:45:59.922Z,70.40
2018-02-13T05:48:27.439Z,71.00
2018-02-13T05:50:55.020Z,71.00
2018-02-13T05:53:22.515Z,71.00
2018-02-13T05:55:50.037Z,68.70
2018-02-13T05:58:18.314Z,70.00
2018-02-13T06:00:46.670Z,69.50
2018-02-13T06:03:14.211Z,69.40
2018-02-13T06:05:41.785Z,69.50
2018-02-13T06:08:09.321Z,69.50
2018-02-13T06:10:36.938Z,70.30
2018-02-13T06:13:05.288Z,69.90
2018-02-13T06:15:32.892Z,69.80
2018-02-13T06:18:00.477Z,70.10
2018-02-13T06:20:28.020Z,70.50
2018-02-13T06:22:55.548Z,70.00
2018-02-13T06:25:23.851Z,71.50
2018-02-13T06:27:51.427Z,70.80
2018-02-13T06:30:18.973Z,70.90
2018-02-13T06:32:46.524Z,71.20
2018-02-13T06:35:14.148Z,70.80
2018-02-13T06:37:41.717Z,70.90
2018-02-13T06:40:10.021Z,71.70
2018-02-13T06:42:37.581Z,70.90
2018-02-13T06:45:05.126Z,71.10
2018-02-13T06:47:33.427Z,71.20
2018-02-13T06:50:01.027Z,71.20
2018-02-13T06:52:28.582Z,71.10
2018-02-13T06:54:56.141Z,71.70
2018-02-13T06:57:23.672Z,71.70
2018-02-13T06:59:51.292Z,71.70
2018-02-13T07:02:18.810Z,71.30
2018-02-13T07:04:46.294Z,71.60
2018-02-13T07:07:13.801Z,71.60
2018-02-13T07:09:41.316Z,72.20
2018-02-13T07:12:08.842Z,71.10
2018-02-13T07:14:36.349Z,70.80
2018-02-13T07:17:04.610Z,68.50
2018-02-13T07:19:32.085Z,69.00
2018-02-13T07:22:00.344Z,67.60
2018-02-13T07:24:27.841Z,67.60
2018-02-13T07:26:55.552Z,67.20
2018-02-13T07:29:23.136Z,67.70
2018-02-13T07:31:50.642Z,67.80
2018-02-13T07:34:18.175Z,68.20
2018-02-13T07:36:46.507Z,68.60
2018-02-13T07:39:14.049Z,68.60
2018-02-13T07:41:41.525Z,68.60
2018-02-13T07:44:09.033Z,69.10
2018-02-13T07:46:36.527Z,69.60
2018-02-13T07:49:04.065Z,69.00
2018-02-13T07:51:31.570Z,69.40
2018-02-13T07:53:59.058Z,69.40
2018-02-13T07:56:27.297Z,67.60
2018-02-13T07:58:54.797Z,67.60
2018-02-13T08:01:23.047Z,67.40
2018-02-13T08:03:50.570Z,67.30
2018-02-13T08:06:18.097Z,66.40
2018-02-13T08:08:45.591Z,67.50
2018-02-13T08:11:13.069Z,67.10
2018-02-13T08:13:40.571Z,66.10
2018-02-13T08:16:08.073Z,66.50
2018-02-13T08:18:35.620Z,66.80
2018-02-13T08:21:03.107Z,66.30
2018-02-13T08:23:30.584Z,66.00
2018-02-13T08:25:58.852Z,65.20
2018-02-13T08:28:26.349Z,64.40
2018-02-13T08:30:53.842Z,64.30
2018-02-13T08:33:21.338Z,64.90
2018-02-13T08:35:49.624Z,65.20
2018-02-13T08:38:17.896Z,64.90
2018-02-13T08:40:46.154Z,63.90
2018-02-13T08:43:13.673Z,63.90
2018-02-13T08:45:41.160Z,62.90
2018-02-13T08:48:08.648Z,63.10
2018-02-13T08:50:36.991Z,61.00
2018-02-13T08:53:04.448Z,60.90
2018-02-13T08:55:31.960Z,59.80
2018-02-13T08:57:59.477Z,59.80
2018-02-13T09:00:26.960Z,59.40
2018-02-13T09:02:55.259Z,58.20
2018-02-13T09:05:22.774Z,58.10
2018-02-13T09:07:50.264Z,58.30
2018-02-13T09:10:17.799Z,57.50
2018-02-13T09:12:45.299Z,57.00
2018-02-13T09:15:12.812Z,57.50
2018-02-13T09:17:40.335Z,55.50
2018-02-13T09:20:07.846Z,53.00
2018-02-13T09:22:36.125Z,46.40
2018-02-13T09:25:04.437Z,44.50
2018-02-13T09:27:31.949Z,44.50
2018-02-13T09:30:00.284Z,38.20
2018-02-13T09:32:27.830Z,38.80
2018-02-13T09:34:55.396Z,37.70
2018-02-13T09:37:22.906Z,35.50
2018-02-13T09:39:51.250Z,33.30
2018-02-13T09:42:18.837Z,33.30
2018-02-13T09:44:47.169Z,31.30
2018-02-13T09:47:14.720Z,31.30
2018-02-13T09:49:42.288Z,32.70
2018-02-13T09:52:09.839Z,29.80
2018-02-13T09:54:37.401Z,29.00
2018-02-13T09:57:04.972Z,28.10
2018-02-13T09:59:32.506Z,27.00
2018-02-13T10:02:00.088Z,28.50
2018-02-13T10:04:27.620Z,27.80
2018-02-13T10:06:55.175Z,25.80
2018-02-13T10:09:22.748Z,25.60
2018-02-13T10:11:50.343Z,24.70
2018-02-13T10:14:17.932Z,27.00
2018-02-13T10:16:45.502Z,27.30
2018-02-13T10:19:13.842Z,26.70
2018-02-13T10:21:41.449Z,26.60
2018-02-13T10:24:09.745Z,23.20
2018-02-13T10:26:37.307Z,23.20
2018-02-13T10:29:04.911Z,25.10
2018-02-13T10:31:32.457Z,24.70
2018-02-13T10:34:00.039Z,25.40
2018-02-13T10:36:27.586Z,23.50
2018-02-13T10:38:55.173Z,24.00
2018-02-13T10:41:23.504Z,23.30
2018-02-13T10:43:51.144Z,23.30
2018-02-13T10:46:18.690Z,23.70
2018-02-13T10:48:47.015Z,23.80
2018-02-13T10:51:14.555Z,23.70
2018-02-13T10:53:42.096Z,24.00
2018-02-13T10:56:09.635Z,24.10
2018-02-13T10:58:37.985Z,22.10
2018-02-13T11:01:11.374Z,22.00
2018-02-13T11:03:38.893Z,24.10
2018-02-13T11:06:06.468Z,22.40
2018-02-13T11:08:34.029Z,23.40
2018-02-13T11:11:01.575Z,25.30
2018-02-13T11:13:29.139Z,25.80
2018-02-13T11:15:56.716Z,25.20
2018-02-13T11:18:24.566Z,27.00
2018-02-13T11:20:52.139Z,24.90
2018-02-13T11:23:20.612Z,24.50
2018-02-13T11:25:48.200Z,26.20
2018-02-13T11:28:15.827Z,23.90
2018-02-13T11:30:43.416Z,24.90
2018-02-13T11:33:10.973Z,24.20
2018-02-13T11:35:38.541Z,25.60
2018-02-13T11:38:06.885Z,25.10
2018-02-13T11:40:34.452Z,25.10
2018-02-13T11:43:02.010Z,26.00
2018-02-13T11:45:29.576Z,25.40
2018-02-13T11:47:57.146Z,26.60
2018-02-13T11:50:25.475Z,27.40
2018-02-13T11:52:53.105Z,27.40
2018-02-13T11:55:20.661Z,27.60
2018-02-13T11:57:48.176Z,30.00
2018-02-13T12:00:15.760Z,29.20
2018-02-13T12:02:43.302Z,28.70
2018-02-13T12:05:10.980Z,28.80
2018-02-13T12:07:38.520Z,29.50
2018-02-13T12:10:06.069Z,29.20
2018-02-13T12:12:33.620Z,32.50
2018-02-13T12:15:01.955Z,29.40
2018-02-13T12:17:29.530Z,29.40
2018-02-13T12:19:57.846Z,29.40
2018-02-13T12:22:25.428Z,29.30
2018-02-13T12:24:52.964Z,29.80
2018-02-13T12:27:20.511Z,30.00
2018-02-13T12:29:48.823Z,31.40
2018-02-13T12:32:16.396Z,30.80
2018-02-13T12:34:43.937Z,32.60
2018-02-13T12:37:11.478Z,30.10
2018-02-13T12:39:39.036Z,31.90
2018-02-13T12:42:06.564Z,31.60
2018-02-13T12:44:34.114Z,33.60
2018-02-13T12:47:01.662Z,32.30
2018-02-13T12:49:29.196Z,33.70
2018-02-13T12:51:56.728Z,34.00
2018-02-13T12:54:25.063Z,33.90
2018-02-13T12:56:52.616Z,33.80
2018-02-13T12:59:20.163Z,33.50
2018-02-13T13:01:47.724Z,34.10
2018-02-13T13:04:15.262Z,34.40
2018-02-13T13:06:42.841Z,34.00
2018-02-13T13:09:10.368Z,34.70
2018-02-13T13:11:48.685Z,35.00
2018-02-13T13:14:16.217Z,35.00
2018-02-13T13:16:43.716Z,35.10
2018-02-13T13:19:11.220Z,34.90
2018-02-13T13:21:38.721Z,35.50
2018-02-13T13:24:06.213Z,36.70
2018-02-13T13:26:33.723Z,36.40
2018-02-13T13:29:02.026Z,36.00
2018-02-13T13:31:29.528Z,36.00
2018-02-13T13:33:57.045Z,36.90
2018-02-13T13:36:24.633Z,37.30
2018-02-13T13:38:52.206Z,37.60
2018-02-13T13:41:19.720Z,36.70
2018-02-13T13:43:47.335Z,38.50
2018-02-13T13:46:15.741Z,38.10
2018-02-13T13:48:43.252Z,37.70
2018-02-13T13:51:10.795Z,38.20
2018-02-13T13:53:38.401Z,37.30
2018-02-13T13:56:06.709Z,37.60
2018-02-13T13:58:34.213Z,37.40
2018-02-13T14:01:01.760Z,37.00
2018-02-13T14:03:29.260Z,37.40
2018-02-13T14:05:57.571Z,36.40
2018-02-13T14:08:25.146Z,36.40
2018-02-13T14:10:52.651Z,37.30
2018-02-13T14:13:20.969Z,36.90
2018-02-13T14:15:48.511Z,36.70
2018-02-13T14:18:16.040Z,36.80
2018-02-13T14:20:44.320Z,36.80
2018-02-13T14:23:12.610Z,37.70
2018-02-13T14:25:40.129Z,37.70
2018-02-13T14:28:07.654Z,37.40
2018-02-13T14:30:35.162Z,36.50
2018-02-13T14:33:02.683Z,36.40
2018-02-13T14:35:30.199Z,37.10
2018-02-13T14:37:58.499Z,36.60
2018-02-13T14:40:26.027Z,36.40
2018-02-13T14:42:54.301Z,36.60
2018-02-13T14:45:22.607Z,36.70
2018-02-13T14:47:50.683Z,36.60
2018-02-13T14:50:18.206Z,36.00
2018-02-13T14:52:45.746Z,36.30
2018-02-13T14:55:13.253Z,36.50
2018-02-13T14:57:40.805Z,36.40
2018-02-13T15:00:08.352Z,36.70
2018-02-13T15:02:36.648Z,37.30
2018-02-13T15:05:04.182Z,37.20
2018-02-13T15:07:31.736Z,36.80
2018-02-13T15:09:59.257Z,36.10
2018-02-13T15:12:26.779Z,35.80
2018-02-13T15:14:55.990Z,37.10
2018-02-13T15:17:29.230Z,37.00
2018-02-13T15:19:56.754Z,36.30
2018-02-13T15:22:24.261Z,37.00
2018-02-13T15:24:51.807Z,36.80
2018-02-13T15:27:19.355Z,37.10
2018-02-13T15:29:46.877Z,36.00
2018-02-13T15:32:14.452Z,36.70
2018-02-13T15:34:41.994Z,35.50
2018-02-13T15:37:09.508Z,36.40
2018-02-13T15:39:37.031Z,36.50
2018-02-13T15:42:04.529Z,35.70
2018-02-13T15:44:32.077Z,35.50
2018-02-13T15:47:04.190Z,34.70
2018-02-13T15:49:32.497Z,36.20
2018-02-13T15:52:00.059Z,36.20
2018-02-13T15:54:27.568Z,36.40
2018-02-13T15:56:55.934Z,35.90
2018-02-13T15:59:23.450Z,36.00
2018-02-13T16:01:50.948Z,36.80
2018-02-13T16:04:18.520Z,36.90
2018-02-13T16:06:46.802Z,36.50
2018-02-13T16:09:15.082Z,36.90
2018-02-13T16:11:43.350Z,37.40
2018-02-13T16:14:11.664Z,38.90
2018-02-13T16:16:39.173Z,38.80
2018-02-13T16:19:06.748Z,38.50
2018-02-13T16:21:35.042Z,41.30
2018-02-13T16:24:02.556Z,41.30
2018-02-13T16:26:30.069Z,43.40
2018-02-13T16:28:57.584Z,41.00
2018-02-13T16:31:25.121Z,42.00
2018-02-13T16:33:52.628Z,44.20
2018-02-13T16:36:20.932Z,44.10
2018-02-13T16:38:48.460Z,44.00
2018-02-13T16:41:16.801Z,44.30
2018-02-13T16:43:44.319Z,44.30
2018-02-13T16:48:45.877Z,44.70
2018-02-13T16:51:13.409Z,44.60
2018-02-13T16:53:40.918Z,45.10
2018-02-13T16:56:08.464Z,45.50
2018-02-13T16:58:35.977Z,46.40
2018-02-13T17:01:03.512Z,47.20
2018-02-13T17:03:31.039Z,47.20
2018-02-13T17:05:58.573Z,47.90
2018-02-13T17:08:26.082Z,48.40
2018-02-13T17:10:53.625Z,50.30
2018-02-13T17:13:21.161Z,51.40
2018-02-13T17:15:49.450Z,49.40
2018-02-13T17:18:16.993Z,49.30
2018-02-13T17:20:45.301Z,49.10
2018-02-13T17:23:12.825Z,49.10
2018-02-13T17:25:41.099Z,50.00
2018-02-13T17:28:09.384Z,49.90
2018-02-13T17:30:37.648Z,49.80
2018-02-13T17:33:05.212Z,49.80
2018-02-13T17:35:33.446Z,51.40
2018-02-13T17:38:01.027Z,51.30
2018-02-13T17:40:28.565Z,51.80
2018-02-13T17:42:56.041Z,51.50
2018-02-13T17:45:23.520Z,52.10
2018-02-13T17:47:51.854Z,52.40
2018-02-13T17:50:19.333Z,52.30
2018-02-13T17:52:46.883Z,53.30
2018-02-13T17:55:14.362Z,53.80
2018-02-13T17:57:41.852Z,54.50
2018-02-13T18:00:09.313Z,55.80
2018-02-13T18:02:37.544Z,56.90
2018-02-13T18:07:39.633Z,57.40
2018-02-13T18:10:07.114Z,57.40
2018-02-13T18:12:34.654Z,57.00
2018-02-13T18:15:02.261Z,58.00
2018-02-13T18:17:29.760Z,57.30
2018-02-13T18:19:57.280Z,56.30
2018-02-13T18:22:24.781Z,56.60
2018-02-13T18:24:53.053Z,55.90
2018-02-13T18:27:20.545Z,55.90
2018-02-13T18:29:48.828Z,55.10
2018-02-13T18:32:17.136Z,55.20
2018-02-13T18:34:44.712Z,55.10
2018-02-13T18:37:12.275Z,56.10
2018-02-13T18:39:39.812Z,55.00
2018-02-13T18:42:07.423Z,54.80
2018-02-13T18:44:34.937Z,54.30
2018-02-13T18:47:02.459Z,53.90
2018-02-13T18:49:30.706Z,52.70
2018-02-13T18:51:58.195Z,52.70
2018-02-13T18:54:26.494Z,53.20
2018-02-13T18:56:54.001Z,53.20
2018-02-13T18:59:21.509Z,54.40
2018-02-13T19:01:49.016Z,54.60
2018-02-13T19:04:16.542Z,52.80
2018-02-13T19:06:44.077Z,51.60
2018-02-13T19:09:11.564Z,52.10
2018-02-13T19:11:39.040Z,54.20
2018-02-13T19:14:06.512Z,54.60
2018-02-13T19:16:33.967Z,53.40
2018-02-13T19:19:01.440Z,55.20
2018-02-13T19:21:28.896Z,52.40
2018-02-13T19:23:56.370Z,51.10
2018-02-13T19:26:24.596Z,50.30
2018-02-13T19:28:52.060Z,50.30
2018-02-13T19:31:19.521Z,50.70
2018-02-13T19:33:46.996Z,50.50
2018-02-13T19:36:14.453Z,50.60
2018-02-13T19:38:41.931Z,53.90
2018-02-13T19:41:10.164Z,52.70
2018-02-13T19:43:37.635Z,52.60
2018-02-13T19:46:05.143Z,52.80
2018-02-13T19:48:32.630Z,53.00
2018-02-13T19:51:00.085Z,53.50
2018-02-13T19:53:27.878Z,55.00
2018-02-13T19:55:55.411Z,54.90
2018-02-13T19:58:22.913Z,55.50
2018-02-13T20:00:51.182Z,55.30
2018-02-13T20:03:18.660Z,55.20
2018-02-13T20:05:46.916Z,55.50
2018-02-13T20:08:14.401Z,55.50
2018-02-13T20:10:41.890Z,55.00
2018-02-13T20:13:09.558Z,53.80
2018-02-13T20:15:37.128Z,53.80
2018-02-13T20:18:04.645Z,53.60
2018-02-13T20:20:32.168Z,53.60
2018-02-13T20:23:00.794Z,54.40
2018-02-13T20:26:53.803Z,54.80
2018-02-13T20:29:21.360Z,53.70
2018-02-13T20:31:48.881Z,54.20
2018-02-13T20:34:16.464Z,54.10
2018-02-13T20:36:44.022Z,54.60
2018-02-13T20:39:11.544Z,55.30
2018-02-13T20:41:40.297Z,53.70
2018-02-13T20:44:07.930Z,52.80
2018-02-13T20:46:35.474Z,52.70
2018-02-13T20:49:03.084Z,53.30
2018-02-13T20:51:30.638Z,52.70
2018-02-13T20:53:58.156Z,53.80
2018-02-13T20:56:25.729Z,53.50
2018-02-13T20:58:53.290Z,54.30
2018-02-13T21:01:20.933Z,54.00
2018-02-13T21:03:48.494Z,54.70
2018-02-13T21:06:16.202Z,53.90
2018-02-13T21:08:44.589Z,55.50
2018-02-13T21:11:12.159Z,55.50
2018-02-13T21:13:39.838Z,55.70
2018-02-13T21:16:07.427Z,56.00
2018-02-13T21:18:35.153Z,53.90
2018-02-13T21:21:02.750Z,54.70
2018-02-13T21:23:30.460Z,54.10
2018-02-13T21:25:58.841Z,55.20
2018-02-13T21:28:27.090Z,56.20
2018-02-13T21:30:54.582Z,56.20
2018-02-13T21:33:22.823Z,56.80
2018-02-13T21:35:50.332Z,56.70
2018-02-13T21:38:17.804Z,57.50
2018-02-13T21:40:45.309Z,56.60
2018-02-13T21:43:12.785Z,56.00
2018-02-13T21:45:41.034Z,56.70
2018-02-13T21:48:08.738Z,56.70
2018-02-13T21:50:37.025Z,56.00
2018-02-13T21:53:04.577Z,55.90
2018-02-13T21:55:32.864Z,55.10
2018-02-13T21:58:00.402Z,55.10
2018-02-13T22:00:28.682Z,54.50
2018-02-13T22:02:56.216Z,54.30
2018-02-13T22:05:23.740Z,54.80
2018-02-13T22:07:51.254Z,56.10
2018-02-13T22:10:18.761Z,55.50
2018-02-13T22:12:46.310Z,56.10
2018-02-13T22:15:13.828Z,55.10
2018-02-13T22:17:42.118Z,55.20
2018-02-13T22:20:10.258Z,55.10
2018-02-13T22:22:37.791Z,55.70
2018-02-13T22:25:05.309Z,55.80
2018-02-13T22:27:32.862Z,55.70
2018-02-13T22:30:01.147Z,55.10
2018-02-13T22:32:28.702Z,55.10
2018-02-13T22:34:56.207Z,55.90
2018-02-13T22:37:23.712Z,56.70
2018-02-13T22:39:51.996Z,57.10
2018-02-13T22:42:19.545Z,57.00
2018-02-13T22:44:47.825Z,58.40
2018-02-13T22:47:15.357Z,58.30
2018-02-13T22:49:42.880Z,58.50
2018-02-13T22:52:10.472Z,58.60
2018-02-13T22:54:37.994Z,58.30
2018-02-13T22:57:05.552Z,57.40
2018-02-13T22:59:33.069Z,56.40
2018-02-13T23:02:01.382Z,56.80
2018-02-13T23:04:28.999Z,56.80
2018-02-13T23:06:56.470Z,56.40
2018-02-13T23:09:24.783Z,57.10
2018-02-13T23:11:52.309Z,57.00
2018-02-13T23:14:20.619Z,57.20
2018-02-13T23:16:48.164Z,57.20
2018-02-13T23:19:15.710Z,57.20
2018-02-13T23:21:44.007Z,57.00
2018-02-13T23:24:11.529Z,57.00
2018-02-13T23:26:39.039Z,57.50
2018-02-13T23:29:06.587Z,58.20
2018-02-13T23:31:34.123Z,57.80
2018-02-13T23:36:36.326Z,54.90
2018-02-13T23:39:03.878Z,55.50
2018-02-13T23:41:31.404Z,56.60
2018-02-13T23:43:58.939Z,54.90
2018-02-13T23:46:26.473Z,55.50
2018-02-13T23:48:54.004Z,56.80
2018-02-13T23:51:22.338Z,56.40
2018-02-13T23:53:49.873Z,56.40
2018-02-13T23:56:17.392Z,57.60
2018-02-13T23:58:44.937Z,56.50
